createdAt,value
2023-03-02T00:00:32.438Z,100805.31
2023-03-02T00:05:35.454Z,100799.03
2023-03-02T00:10:38.240Z,100793.31
2023-03-02T00:15:40.198Z,100793.78
2023-03-02T00:20:41.942Z,100800.22
2023-03-02T00:25:43.661Z,100794.78
2023-03-02T00:30:45.445Z,100792.41
2023-03-02T00:35:47.218Z,100785.88
2023-03-02T00:40:49.447Z,100785.97
2023-03-02T00:45:51.092Z,100776.19
2023-03-02T00:50:52.782Z,100763.94
2023-03-02T00:55:55.269Z,100765.78
2023-03-02T01:00:59.171Z,100763.09
2023-03-02T01:06:02.417Z,100761.31
2023-03-02T01:11:04.338Z,100750.75
2023-03-02T01:16:06.345Z,100754.44
2023-03-02T01:21:11.973Z,100753.09
2023-03-02T01:26:13.814Z,100748.03
2023-03-02T01:31:15.509Z,100741.53
2023-03-02T01:36:17.774Z,100734.50
2023-03-02T01:47:54.009Z,100725.63
2023-03-02T01:52:56.693Z,100725.66
2023-03-02T01:58:01.697Z,100718.00
2023-03-02T02:03:09.263Z,100716.91
2023-03-02T02:08:11.197Z,100721.59
2023-03-02T02:13:13.721Z,100711.66
2023-03-02T02:18:15.333Z,100708.47
2023-03-02T02:23:34.971Z,100708.47
2023-03-02T02:28:44.765Z,100716.53
2023-03-02T02:33:55.181Z,100710.00
2023-03-02T02:38:57.146Z,100710.13
2023-03-02T02:43:59.292Z,100704.28
2023-03-02T02:49:03.051Z,100707.19
2023-03-02T02:54:04.877Z,100697.16
2023-03-02T02:59:23.760Z,100697.66
2023-03-02T03:04:29.981Z,100689.56
2023-03-02T03:09:33.261Z,100675.22
2023-03-02T03:14:39.389Z,100680.00
2023-03-02T03:19:44.681Z,100682.53
2023-03-02T03:24:46.804Z,100686.75
2023-03-02T03:29:50.339Z,100675.44
2023-03-02T03:34:54.068Z,100683.66
2023-03-02T03:40:09.793Z,100676.72
2023-03-02T03:45:13.811Z,100678.38
2023-03-02T03:50:18.364Z,100687.75
2023-03-02T03:55:20.163Z,100695.69
2023-03-02T04:00:24.244Z,100695.69
2023-03-02T04:05:34.619Z,100694.72
2023-03-02T04:10:37.852Z,100689.94
2023-03-02T04:15:41.908Z,100688.63
2023-03-02T04:20:43.855Z,100694.16
2023-03-02T04:25:45.770Z,100688.97
2023-03-02T04:30:52.284Z,100676.44
2023-03-02T04:35:54.654Z,100682.84
2023-03-02T04:40:57.656Z,100681.34
2023-03-02T04:45:59.852Z,100681.28
2023-03-02T04:51:01.601Z,100699.56
2023-03-02T04:56:03.516Z,100692.69
2023-03-02T05:01:05.289Z,100683.34
2023-03-02T05:06:07.916Z,100683.25
2023-03-02T05:11:15.853Z,100679.22
2023-03-02T05:16:18.077Z,100673.19
2023-03-02T05:21:19.872Z,100672.44
2023-03-02T05:26:21.604Z,100671.13
2023-03-02T05:31:43.555Z,100674.94
2023-03-02T05:36:46.278Z,100670.28
2023-03-02T05:41:48.601Z,100670.84
2023-03-02T05:46:50.302Z,100669.34
2023-03-02T05:51:51.964Z,100672.50
2023-03-02T05:56:53.670Z,100674.00
2023-03-02T06:01:58.828Z,100684.97
2023-03-02T06:07:00.667Z,100679.41
2023-03-02T06:12:02.306Z,100679.94
2023-03-02T06:17:04.165Z,100685.13
2023-03-02T06:22:05.858Z,100685.31
2023-03-02T06:27:07.516Z,100696.16
2023-03-02T06:32:10.539Z,100693.09
2023-03-02T06:37:12.333Z,100700.78
2023-03-02T06:42:14.112Z,100702.78
2023-03-02T06:47:15.798Z,100695.75
2023-03-02T06:52:17.672Z,100694.97
2023-03-02T06:57:19.331Z,100688.59
2023-03-02T07:02:20.980Z,100675.75
2023-03-02T07:07:22.635Z,100676.31
2023-03-02T07:12:24.800Z,100670.81
2023-03-02T07:17:26.687Z,100688.84
2023-03-02T07:22:28.313Z,100677.56
2023-03-02T07:27:30.106Z,100675.84
2023-03-02T07:32:31.845Z,100675.44
2023-03-02T07:37:33.576Z,100682.50
2023-03-02T07:42:35.208Z,100679.50
2023-03-02T07:47:37.983Z,100677.53
2023-03-02T07:52:39.679Z,100680.16
2023-03-02T07:57:41.448Z,100676.72
2023-03-02T08:02:43.267Z,100672.41
2023-03-02T08:07:46.695Z,100676.69
2023-03-02T08:12:48.391Z,100688.41
2023-03-02T08:17:50.061Z,100691.88
2023-03-02T08:22:51.935Z,100678.84
2023-03-02T08:27:53.718Z,100682.94
2023-03-02T08:32:55.421Z,100690.69
2023-03-02T08:37:59.675Z,100685.16
2023-03-02T08:43:01.385Z,100670.09
2023-03-02T08:48:03.222Z,100674.31
2023-03-02T08:53:04.894Z,100667.28
2023-03-02T08:58:06.599Z,100663.56
2023-03-02T09:03:08.253Z,100661.56
2023-03-02T09:08:10.525Z,100656.00
2023-03-02T09:13:12.177Z,100646.53
2023-03-02T09:18:13.834Z,100648.41
2023-03-02T09:23:24.548Z,100653.44
2023-03-02T09:28:26.294Z,100647.47
2023-03-02T09:33:28.733Z,100649.13
2023-03-02T09:38:30.369Z,100658.38
2023-03-02T09:43:50.072Z,100644.00
2023-03-02T09:49:25.974Z,100645.44
2023-03-02T09:54:28.908Z,100650.56
2023-03-02T09:59:39.426Z,100645.03
2023-03-02T10:04:50.203Z,100645.28
2023-03-02T10:09:52.129Z,100631.19
2023-03-02T10:15:04.182Z,100625.50
2023-03-02T10:20:17.025Z,100624.19
2023-03-02T10:25:50.642Z,100614.84
2023-03-02T10:31:05.442Z,100606.19
2023-03-02T10:36:21.397Z,100610.41
2023-03-02T10:41:29.083Z,100605.88
2023-03-02T10:46:46.269Z,100599.72
2023-03-02T10:51:58.124Z,100596.69
2023-03-02T10:57:03.718Z,100599.53
2023-03-02T11:02:23.239Z,100590.88
2023-03-02T11:07:28.499Z,100591.69
2023-03-02T11:12:31.237Z,100578.56
2023-03-02T11:17:38.507Z,100571.38
2023-03-02T11:23:00.687Z,100562.47
2023-03-02T11:28:17.238Z,100550.81
2023-03-02T11:33:34.696Z,100548.72
2023-03-02T11:38:53.438Z,100545.09
2023-03-02T11:43:58.277Z,100536.69
2023-03-02T11:49:05.392Z,100532.31
2023-03-02T11:54:44.279Z,100526.78
2023-03-02T11:59:46.293Z,100513.34
2023-03-02T12:04:48.867Z,100512.31
2023-03-02T12:10:08.128Z,100511.63
2023-03-02T12:15:33.952Z,100499.56
2023-03-02T12:20:37.411Z,100501.97
2023-03-02T12:25:51.139Z,100495.56
2023-03-02T12:31:10.998Z,100493.19
2023-03-02T12:36:17.680Z,100485.47
2023-03-02T12:41:41.553Z,100475.34
2023-03-02T12:46:48.823Z,100474.06
2023-03-02T12:51:52.860Z,100459.50
2023-03-02T12:57:08.794Z,100451.22
2023-03-02T13:02:16.252Z,100449.47
2023-03-02T13:07:22.155Z,100444.31
2023-03-02T13:12:26.882Z,100442.03
2023-03-02T13:17:33.056Z,100440.16
2023-03-02T13:22:34.849Z,100433.16
2023-03-02T13:27:36.590Z,100428.91
2023-03-02T13:32:42.149Z,100416.69
2023-03-02T13:37:44.313Z,100417.66
2023-03-02T13:42:46.077Z,100414.00
2023-03-02T13:47:47.867Z,100413.16
2023-03-02T13:52:50.599Z,100409.00
2023-03-02T13:57:54.199Z,100412.47
2023-03-02T14:02:55.874Z,100405.72
2023-03-02T14:07:57.490Z,100407.13
2023-03-02T14:13:05.501Z,100401.09
2023-03-02T14:18:30.210Z,100396.78
2023-03-02T14:23:32.158Z,100389.91
2023-03-02T14:28:35.973Z,100383.13
2023-03-02T14:33:38.035Z,100388.25
2023-03-02T14:38:39.736Z,100379.22
2023-03-02T14:43:41.479Z,100376.69
2023-03-02T14:48:43.253Z,100372.44
2023-03-02T14:53:44.942Z,100362.97
2023-03-02T14:58:46.761Z,100359.28
2023-03-02T15:03:48.413Z,100354.38
2023-03-02T15:08:50.054Z,100349.81
2023-03-02T15:13:51.902Z,100347.25
2023-03-02T15:18:53.974Z,100343.84
2023-03-02T15:23:55.775Z,100341.28
2023-03-02T15:28:57.562Z,100346.75
2023-03-02T15:33:59.423Z,100347.41
2023-03-02T15:39:01.072Z,100348.50
2023-03-02T15:44:02.772Z,100345.84
2023-03-02T15:49:04.456Z,100340.50
2023-03-02T15:54:06.659Z,100328.56
2023-03-02T15:59:08.276Z,100327.63
2023-03-02T16:04:10.429Z,100335.47
2023-03-02T16:09:12.578Z,100338.09
2023-03-02T16:14:15.609Z,100340.19
2023-03-02T16:19:19.281Z,100343.03
2023-03-02T16:24:21.265Z,100337.09
2023-03-02T16:29:24.252Z,100347.47
2023-03-02T16:34:25.883Z,100361.63
2023-03-02T16:39:27.558Z,100359.94
2023-03-02T16:44:29.265Z,100351.22
2023-03-02T16:49:30.942Z,100356.63
2023-03-02T16:54:32.574Z,100361.28
2023-03-02T16:59:34.277Z,100359.66
2023-03-02T17:04:37.243Z,100365.72
2023-03-02T17:09:41.819Z,100368.41
2023-03-02T17:14:43.549Z,100371.91
2023-03-02T17:19:45.191Z,100369.22
2023-03-02T17:24:46.835Z,100368.38
2023-03-02T17:29:48.479Z,100363.97
2023-03-02T17:34:50.535Z,100369.22
2023-03-02T17:39:52.678Z,100371.75
2023-03-02T17:44:54.430Z,100376.91
2023-03-02T17:49:58.329Z,100376.88
2023-03-02T17:54:59.939Z,100382.69
2023-03-02T18:00:01.937Z,100379.34
2023-03-02T18:05:08.244Z,100387.91
2023-03-02T18:10:10.780Z,100384.34
2023-03-02T18:15:12.950Z,100391.13
2023-03-02T18:20:15.036Z,100391.69
2023-03-02T18:25:17.063Z,100405.47
2023-03-02T18:30:21.223Z,100404.03
2023-03-02T18:35:23.943Z,100404.06
2023-03-02T18:40:25.976Z,100408.31
2023-03-02T18:45:30.511Z,100421.16
2023-03-02T18:50:32.528Z,100429.38
2023-03-02T18:55:37.147Z,100428.97
2023-03-02T19:00:39.267Z,100430.41
2023-03-02T19:05:42.393Z,100431.44
2023-03-02T19:10:44.175Z,100433.25
2023-03-02T19:15:47.220Z,100440.22
2023-03-02T19:20:50.797Z,100444.56
2023-03-02T19:25:55.571Z,100450.56
2023-03-02T19:30:57.739Z,100458.28
2023-03-02T19:35:59.900Z,100454.22
2023-03-02T19:41:02.121Z,100456.84
2023-03-02T19:46:05.267Z,100463.50
2023-03-02T19:51:09.094Z,100455.50
2023-03-02T19:56:14.310Z,100453.69
2023-03-02T20:01:25.092Z,100465.53
2023-03-02T20:06:30.513Z,100460.69
2023-03-02T20:11:32.377Z,100466.69
2023-03-02T20:16:36.015Z,100467.91
2023-03-02T20:21:38.451Z,100463.41
2023-03-02T20:26:42.166Z,100472.84
2023-03-02T20:31:44.637Z,100475.25
2023-03-02T20:36:47.110Z,100478.88
2023-03-02T20:41:51.709Z,100480.00
2023-03-02T20:46:58.137Z,100478.75
2023-03-02T20:52:00.281Z,100477.97
2023-03-02T20:57:02.062Z,100478.13
2023-03-02T21:02:04.601Z,100472.88
2023-03-02T21:07:06.698Z,100471.56
2023-03-02T21:12:11.841Z,100466.78
2023-03-02T21:17:13.594Z,100459.72
2023-03-02T21:22:15.297Z,100457.31
2023-03-02T21:27:16.946Z,100460.09
2023-03-02T21:32:18.954Z,100462.16
2023-03-02T21:37:20.702Z,100455.84
2023-03-02T21:42:22.640Z,100464.69
2023-03-02T21:47:24.350Z,100465.63
2023-03-02T21:52:27.296Z,100455.75
2023-03-02T21:57:28.913Z,100462.53
2023-03-02T22:02:31.271Z,100456.09
2023-03-02T22:07:32.875Z,100464.09
2023-03-02T22:12:34.576Z,100462.34
2023-03-02T22:17:36.273Z,100459.53
2023-03-02T22:22:37.875Z,100463.91
2023-03-02T22:27:39.483Z,100478.44
2023-03-02T22:32:41.153Z,100473.59
2023-03-02T22:37:42.824Z,100473.66
2023-03-02T22:42:44.522Z,100472.53
2023-03-02T22:47:51.265Z,100464.25
2023-03-02T22:52:54.563Z,100463.16
2023-03-02T22:57:56.255Z,100464.84
2023-03-02T23:02:57.876Z,100462.22
2023-03-02T23:08:22.572Z,100467.69
2023-03-02T23:13:30.236Z,100472.97
2023-03-02T23:18:32.892Z,100475.25
2023-03-02T23:23:34.874Z,100483.44
2023-03-02T23:28:36.503Z,100482.16
2023-03-02T23:33:38.143Z,100465.31
2023-03-02T23:38:40.639Z,100465.97
2023-03-02T23:43:42.523Z,100477.31
2023-03-02T23:48:44.410Z,100464.41
2023-03-02T23:53:46.137Z,100470.44
2023-03-02T23:58:48.116Z,100467.38
